sensor_id;sensor_type;location;lat;lon;timestamp;P1;durP1;ratioP1;P2;durP2;ratioP2
25153;SDS011;47555;51.038;6.280;2023-07-29T00:01:17;4.88;;;2.20;;
25153;SDS011;47555;51.038;6.280;2023-07-29T00:03:43;3.28;;;2.67;;
25153;SDS011;47555;51.038;6.280;2023-07-29T00:06:09;2.72;;;2.53;;
25153;SDS011;47555;51.038;6.280;2023-07-29T00:08:35;4.20;;;2.60;;
25153;SDS011;47555;51.038;6.280;2023-07-29T00:11:01;3.78;;;2.60;;
25153;SDS011;47555;51.038;6.280;2023-07-29T00:13:27;2.83;;;2.60;;
25153;SDS011;47555;51.038;6.280;2023-07-29T00:15:54;2.65;;;2.33;;
25153;SDS011;47555;51.038;6.280;2023-07-29T00:18:23;3.00;;;2.78;;
25153;SDS011;47555;51.038;6.280;2023-07-29T00:20:49;3.95;;;2.80;;
25153;SDS011;47555;51.038;6.280;2023-07-29T00:23:16;2.45;;;2.25;;
25153;SDS011;47555;51.038;6.280;2023-07-29T00:25:43;2.80;;;2.60;;
25153;SDS011;47555;51.038;6.280;2023-07-29T00:28:10;4.38;;;2.90;;
25153;SDS011;47555;51.038;6.280;2023-07-29T00:30:35;3.30;;;3.00;;
25153;SDS011;47555;51.038;6.280;2023-07-29T00:33:01;2.60;;;2.40;;
25153;SDS011;47555;51.038;6.280;2023-07-29T00:35:27;2.85;;;2.65;;
25153;SDS011;47555;51.038;6.280;2023-07-29T00:37:53;3.17;;;2.28;;
25153;SDS011;47555;51.038;6.280;2023-07-29T00:40:20;4.47;;;2.38;;
25153;SDS011;47555;51.038;6.280;2023-07-29T00:42:46;3.63;;;2.88;;
25153;SDS011;47555;51.038;6.280;2023-07-29T00:45:12;2.65;;;2.42;;
25153;SDS011;47555;51.038;6.280;2023-07-29T00:47:38;3.35;;;2.67;;
25153;SDS011;47555;51.038;6.280;2023-07-29T00:50:05;3.78;;;2.60;;
25153;SDS011;47555;51.038;6.280;2023-07-29T00:52:31;2.65;;;2.45;;
25153;SDS011;47555;51.038;6.280;2023-07-29T00:55:01;3.75;;;2.80;;
25153;SDS011;47555;51.038;6.280;2023-07-29T00:57:27;3.50;;;2.78;;
25153;SDS011;47555;51.038;6.280;2023-07-29T00:59:54;3.75;;;2.55;;
25153;SDS011;47555;51.038;6.280;2023-07-29T01:02:21;3.72;;;2.80;;
25153;SDS011;47555;51.038;6.280;2023-07-29T01:04:53;3.40;;;3.10;;
25153;SDS011;47555;51.038;6.280;2023-07-29T01:10:02;3.28;;;2.80;;
25153;SDS011;47555;51.038;6.280;2023-07-29T01:15:03;2.55;;;2.35;;
25153;SDS011;47555;51.038;6.280;2023-07-29T01:17:32;3.83;;;2.75;;
25153;SDS011;47555;51.038;6.280;2023-07-29T01:20:05;4.65;;;3.22;;
25153;SDS011;47555;51.038;6.280;2023-07-29T01:22:36;4.00;;;2.83;;
25153;SDS011;47555;51.038;6.280;2023-07-29T01:25:03;3.50;;;2.60;;
25153;SDS011;47555;51.038;6.280;2023-07-29T01:27:30;3.20;;;2.90;;
25153;SDS011;47555;51.038;6.280;2023-07-29T01:29:56;4.28;;;2.88;;
25153;SDS011;47555;51.038;6.280;2023-07-29T01:32:27;2.83;;;2.58;;
25153;SDS011;47555;51.038;6.280;2023-07-29T01:34:56;3.00;;;2.70;;
25153;SDS011;47555;51.038;6.280;2023-07-29T01:37:26;3.17;;;2.88;;
25153;SDS011;47555;51.038;6.280;2023-07-29T01:39:53;4.20;;;3.10;;
25153;SDS011;47555;51.038;6.280;2023-07-29T01:42:21;3.15;;;2.78;;
25153;SDS011;47555;51.038;6.280;2023-07-29T01:44:47;3.30;;;3.00;;
25153;SDS011;47555;51.038;6.280;2023-07-29T01:47:13;3.85;;;3.08;;
25153;SDS011;47555;51.038;6.280;2023-07-29T01:49:39;3.70;;;3.00;;
25153;SDS011;47555;51.038;6.280;2023-07-29T01:52:05;4.93;;;2.92;;
25153;SDS011;47555;51.038;6.280;2023-07-29T01:54:31;3.35;;;3.05;;
25153;SDS011;47555;51.038;6.280;2023-07-29T01:56:57;3.50;;;3.08;;
25153;SDS011;47555;51.038;6.280;2023-07-29T01:59:23;3.72;;;3.00;;
25153;SDS011;47555;51.038;6.280;2023-07-29T02:01:49;4.07;;;3.00;;
25153;SDS011;47555;51.038;6.280;2023-07-29T02:04:15;4.43;;;3.28;;
25153;SDS011;47555;51.038;6.280;2023-07-29T02:06:41;3.05;;;2.70;;
25153;SDS011;47555;51.038;6.280;2023-07-29T02:09:06;3.60;;;2.83;;
25153;SDS011;47555;51.038;6.280;2023-07-29T02:11:32;4.05;;;2.97;;
25153;SDS011;47555;51.038;6.280;2023-07-29T02:13:58;3.22;;;2.92;;
25153;SDS011;47555;51.038;6.280;2023-07-29T02:16:24;3.25;;;2.97;;
25153;SDS011;47555;51.038;6.280;2023-07-29T02:18:50;4.25;;;3.47;;
25153;SDS011;47555;51.038;6.280;2023-07-29T02:21:16;6.03;;;3.42;;
25153;SDS011;47555;51.038;6.280;2023-07-29T02:23:42;6.15;;;3.72;;
25153;SDS011;47555;51.038;6.280;2023-07-29T02:26:08;6.55;;;4.68;;
25153;SDS011;47555;51.038;6.280;2023-07-29T02:28:34;8.48;;;4.97;;
25153;SDS011;47555;51.038;6.280;2023-07-29T02:31:14;8.05;;;4.93;;
25153;SDS011;47555;51.038;6.280;2023-07-29T02:33:41;6.25;;;3.60;;
25153;SDS011;47555;51.038;6.280;2023-07-29T02:36:07;7.32;;;4.13;;
25153;SDS011;47555;51.038;6.280;2023-07-29T02:38:33;5.93;;;4.38;;
25153;SDS011;47555;51.038;6.280;2023-07-29T02:40:59;5.22;;;4.35;;
25153;SDS011;47555;51.038;6.280;2023-07-29T02:43:25;6.97;;;4.53;;
25153;SDS011;47555;51.038;6.280;2023-07-29T02:45:51;4.18;;;3.70;;
25153;SDS011;47555;51.038;6.280;2023-07-29T02:48:17;5.45;;;3.88;;
25153;SDS011;47555;51.038;6.280;2023-07-29T02:50:43;3.53;;;3.10;;
25153;SDS011;47555;51.038;6.280;2023-07-29T02:53:09;4.75;;;3.53;;
25153;SDS011;47555;51.038;6.280;2023-07-29T02:55:35;3.95;;;3.63;;
25153;SDS011;47555;51.038;6.280;2023-07-29T02:58:01;3.97;;;3.30;;
25153;SDS011;47555;51.038;6.280;2023-07-29T03:00:27;5.70;;;3.88;;
25153;SDS011;47555;51.038;6.280;2023-07-29T03:02:56;3.67;;;3.38;;
25153;SDS011;47555;51.038;6.280;2023-07-29T03:05:28;3.67;;;3.38;;
25153;SDS011;47555;51.038;6.280;2023-07-29T03:07:54;3.50;;;3.20;;
25153;SDS011;47555;51.038;6.280;2023-07-29T03:10:20;3.80;;;3.35;;
25153;SDS011;47555;51.038;6.280;2023-07-29T03:12:47;3.92;;;3.10;;
25153;SDS011;47555;51.038;6.280;2023-07-29T03:15:13;3.33;;;3.03;;
25153;SDS011;47555;51.038;6.280;2023-07-29T03:17:39;3.45;;;3.00;;
25153;SDS011;47555;51.038;6.280;2023-07-29T03:20:05;3.00;;;2.70;;
25153;SDS011;47555;51.038;6.280;2023-07-29T03:22:31;4.00;;;3.20;;
25153;SDS011;47555;51.038;6.280;2023-07-29T03:24:57;3.50;;;3.20;;
25153;SDS011;47555;51.038;6.280;2023-07-29T03:27:23;3.80;;;3.30;;
25153;SDS011;47555;51.038;6.280;2023-07-29T03:29:49;3.58;;;3.08;;
25153;SDS011;47555;51.038;6.280;2023-07-29T03:32:15;3.55;;;2.88;;
25153;SDS011;47555;51.038;6.280;2023-07-29T03:34:41;4.00;;;3.20;;
25153;SDS011;47555;51.038;6.280;2023-07-29T03:37:07;3.58;;;3.20;;
25153;SDS011;47555;51.038;6.280;2023-07-29T03:39:33;3.50;;;3.17;;
25153;SDS011;47555;51.038;6.280;2023-07-29T03:41:59;6.10;;;3.30;;
25153;SDS011;47555;51.038;6.280;2023-07-29T03:44:25;3.10;;;2.72;;
25153;SDS011;47555;51.038;6.280;2023-07-29T03:46:50;4.25;;;3.33;;
25153;SDS011;47555;51.038;6.280;2023-07-29T03:49:16;4.70;;;3.60;;
25153;SDS011;47555;51.038;6.280;2023-07-29T03:51:42;4.55;;;3.78;;
25153;SDS011;47555;51.038;6.280;2023-07-29T03:54:09;4.00;;;3.45;;
25153;SDS011;47555;51.038;6.280;2023-07-29T03:56:35;3.72;;;3.30;;
25153;SDS011;47555;51.038;6.280;2023-07-29T03:59:02;4.55;;;3.58;;
25153;SDS011;47555;51.038;6.280;2023-07-29T04:01:28;4.30;;;3.70;;
25153;SDS011;47555;51.038;6.280;2023-07-29T04:03:54;4.25;;;3.55;;
25153;SDS011;47555;51.038;6.280;2023-07-29T04:06:20;7.68;;;4.38;;
25153;SDS011;47555;51.038;6.280;2023-07-29T04:08:47;6.45;;;3.75;;
25153;SDS011;47555;51.038;6.280;2023-07-29T04:11:13;4.75;;;3.60;;
25153;SDS011;47555;51.038;6.280;2023-07-29T04:13:39;3.65;;;3.22;;
25153;SDS011;47555;51.038;6.280;2023-07-29T04:16:06;5.35;;;3.53;;
25153;SDS011;47555;51.038;6.280;2023-07-29T04:18:32;4.65;;;3.80;;
25153;SDS011;47555;51.038;6.280;2023-07-29T04:20:58;4.40;;;3.55;;
25153;SDS011;47555;51.038;6.280;2023-07-29T04:23:24;4.80;;;3.22;;
25153;SDS011;47555;51.038;6.280;2023-07-29T04:25:49;4.90;;;3.63;;
25153;SDS011;47555;51.038;6.280;2023-07-29T04:28:16;5.18;;;3.47;;
25153;SDS011;47555;51.038;6.280;2023-07-29T04:30:42;4.28;;;3.30;;
25153;SDS011;47555;51.038;6.280;2023-07-29T04:33:08;3.88;;;3.00;;
25153;SDS011;47555;51.038;6.280;2023-07-29T04:35:34;4.85;;;3.38;;
25153;SDS011;47555;51.038;6.280;2023-07-29T04:38:00;4.30;;;3.22;;
25153;SDS011;47555;51.038;6.280;2023-07-29T04:40:26;5.03;;;3.78;;
25153;SDS011;47555;51.038;6.280;2023-07-29T04:42:52;4.22;;;3.15;;
25153;SDS011;47555;51.038;6.280;2023-07-29T04:45:18;5.10;;;3.20;;
25153;SDS011;47555;51.038;6.280;2023-07-29T04:47:44;4.25;;;3.55;;
25153;SDS011;47555;51.038;6.280;2023-07-29T04:50:10;5.30;;;3.25;;
25153;SDS011;47555;51.038;6.280;2023-07-29T04:52:36;4.50;;;3.45;;
25153;SDS011;47555;51.038;6.280;2023-07-29T04:55:05;3.78;;;2.97;;
25153;SDS011;47555;51.038;6.280;2023-07-29T04:57:31;4.70;;;3.05;;
25153;SDS011;47555;51.038;6.280;2023-07-29T04:59:57;5.45;;;3.25;;
25153;SDS011;47555;51.038;6.280;2023-07-29T05:02:23;3.08;;;2.78;;
25153;SDS011;47555;51.038;6.280;2023-07-29T05:04:49;4.28;;;3.42;;
25153;SDS011;47555;51.038;6.280;2023-07-29T05:07:15;5.40;;;3.50;;
25153;SDS011;47555;51.038;6.280;2023-07-29T05:09:41;4.75;;;3.22;;
25153;SDS011;47555;51.038;6.280;2023-07-29T05:12:07;5.03;;;3.35;;
25153;SDS011;47555;51.038;6.280;2023-07-29T05:14:33;4.72;;;3.13;;
25153;SDS011;47555;51.038;6.280;2023-07-29T05:16:59;4.40;;;3.35;;
25153;SDS011;47555;51.038;6.280;2023-07-29T05:19:25;3.55;;;2.90;;
25153;SDS011;47555;51.038;6.280;2023-07-29T05:21:51;5.70;;;3.38;;
25153;SDS011;47555;51.038;6.280;2023-07-29T05:24:20;5.50;;;3.00;;
25153;SDS011;47555;51.038;6.280;2023-07-29T05:26:46;3.63;;;2.50;;
25153;SDS011;47555;51.038;6.280;2023-07-29T05:29:12;3.20;;;2.85;;
25153;SDS011;47555;51.038;6.280;2023-07-29T05:31:38;3.55;;;2.90;;
25153;SDS011;47555;51.038;6.280;2023-07-29T05:34:04;3.88;;;2.95;;
25153;SDS011;47555;51.038;6.280;2023-07-29T05:36:30;6.32;;;2.83;;
25153;SDS011;47555;51.038;6.280;2023-07-29T05:38:56;3.22;;;2.50;;
25153;SDS011;47555;51.038;6.280;2023-07-29T05:41:22;4.00;;;3.38;;
25153;SDS011;47555;51.038;6.280;2023-07-29T05:43:48;4.88;;;3.45;;
25153;SDS011;47555;51.038;6.280;2023-07-29T05:46:14;3.08;;;2.70;;
25153;SDS011;47555;51.038;6.280;2023-07-29T05:48:40;4.30;;;3.42;;
25153;SDS011;47555;51.038;6.280;2023-07-29T05:51:06;4.00;;;2.88;;
25153;SDS011;47555;51.038;6.280;2023-07-29T05:53:32;3.53;;;3.10;;
25153;SDS011;47555;51.038;6.280;2023-07-29T05:56:01;3.38;;;2.30;;
25153;SDS011;47555;51.038;6.280;2023-07-29T05:58:27;4.40;;;3.10;;
25153;SDS011;47555;51.038;6.280;2023-07-29T06:00:53;3.78;;;2.55;;
25153;SDS011;47555;51.038;6.280;2023-07-29T06:03:19;2.90;;;2.60;;
25153;SDS011;47555;51.038;6.280;2023-07-29T06:05:45;3.85;;;2.60;;
25153;SDS011;47555;51.038;6.280;2023-07-29T06:08:10;2.85;;;2.20;;
25153;SDS011;47555;51.038;6.280;2023-07-29T06:10:36;4.07;;;2.90;;
25153;SDS011;47555;51.038;6.280;2023-07-29T06:13:02;3.08;;;2.15;;
25153;SDS011;47555;51.038;6.280;2023-07-29T06:15:28;4.03;;;3.00;;
25153;SDS011;47555;51.038;6.280;2023-07-29T06:17:54;2.88;;;2.15;;
25153;SDS011;47555;51.038;6.280;2023-07-29T06:20:20;2.88;;;2.58;;
25153;SDS011;47555;51.038;6.280;2023-07-29T06:22:46;3.05;;;2.45;;
25153;SDS011;47555;51.038;6.280;2023-07-29T06:25:12;4.60;;;2.30;;
25153;SDS011;47555;51.038;6.280;2023-07-29T06:27:38;5.10;;;2.70;;
25153;SDS011;47555;51.038;6.280;2023-07-29T06:30:05;5.22;;;2.75;;
25153;SDS011;47555;51.038;6.280;2023-07-29T06:32:31;3.95;;;2.42;;
25153;SDS011;47555;51.038;6.280;2023-07-29T06:34:57;5.47;;;2.50;;
25153;SDS011;47555;51.038;6.280;2023-07-29T06:37:23;4.82;;;2.53;;
25153;SDS011;47555;51.038;6.280;2023-07-29T06:39:49;6.25;;;2.55;;
25153;SDS011;47555;51.038;6.280;2023-07-29T06:42:15;3.35;;;2.85;;
25153;SDS011;47555;51.038;6.280;2023-07-29T06:44:41;4.35;;;2.67;;
25153;SDS011;47555;51.038;6.280;2023-07-29T06:47:06;3.67;;;2.50;;
25153;SDS011;47555;51.038;6.280;2023-07-29T06:49:32;2.85;;;2.50;;
25153;SDS011;47555;51.038;6.280;2023-07-29T06:51:58;4.88;;;2.95;;
25153;SDS011;47555;51.038;6.280;2023-07-29T06:54:25;2.97;;;2.42;;
25153;SDS011;47555;51.038;6.280;2023-07-29T06:56:51;3.60;;;2.20;;
25153;SDS011;47555;51.038;6.280;2023-07-29T06:59:17;3.80;;;1.90;;
25153;SDS011;47555;51.038;6.280;2023-07-29T07:01:43;2.95;;;2.00;;
25153;SDS011;47555;51.038;6.280;2023-07-29T07:04:09;2.28;;;1.90;;
25153;SDS011;47555;51.038;6.280;2023-07-29T07:06:35;3.17;;;2.00;;
25153;SDS011;47555;51.038;6.280;2023-07-29T07:09:01;2.30;;;1.80;;
25153;SDS011;47555;51.038;6.280;2023-07-29T07:11:27;3.08;;;2.00;;
25153;SDS011;47555;51.038;6.280;2023-07-29T07:13:53;3.10;;;1.80;;
25153;SDS011;47555;51.038;6.280;2023-07-29T07:16:19;3.35;;;1.60;;
25153;SDS011;47555;51.038;6.280;2023-07-29T07:18:45;1.92;;;1.77;;
25153;SDS011;47555;51.038;6.280;2023-07-29T07:21:12;3.25;;;1.48;;
25153;SDS011;47555;51.038;6.280;2023-07-29T07:23:38;2.55;;;1.90;;
25153;SDS011;47555;51.038;6.280;2023-07-29T07:26:04;1.95;;;1.60;;
25153;SDS011;47555;51.038;6.280;2023-07-29T07:28:30;2.88;;;1.50;;
25153;SDS011;47555;51.038;6.280;2023-07-29T07:30:56;1.95;;;1.75;;
25153;SDS011;47555;51.038;6.280;2023-07-29T07:33:22;1.95;;;1.70;;
25153;SDS011;47555;51.038;6.280;2023-07-29T07:35:48;3.45;;;1.70;;
25153;SDS011;47555;51.038;6.280;2023-07-29T07:38:14;4.55;;;1.80;;
25153;SDS011;47555;51.038;6.280;2023-07-29T07:40:40;2.63;;;1.65;;
25153;SDS011;47555;51.038;6.280;2023-07-29T07:43:06;2.25;;;1.33;;
25153;SDS011;47555;51.038;6.280;2023-07-29T07:45:35;2.38;;;1.38;;
25153;SDS011;47555;51.038;6.280;2023-07-29T07:48:01;2.63;;;1.55;;
25153;SDS011;47555;51.038;6.280;2023-07-29T07:50:29;2.15;;;1.50;;
25153;SDS011;47555;51.038;6.280;2023-07-29T07:52:57;2.25;;;1.33;;
25153;SDS011;47555;51.038;6.280;2023-07-29T07:55:23;2.55;;;1.35;;
25153;SDS011;47555;51.038;6.280;2023-07-29T07:57:49;3.45;;;1.38;;
25153;SDS011;47555;51.038;6.280;2023-07-29T08:00:15;7.38;;;1.50;;
25153;SDS011;47555;51.038;6.280;2023-07-29T08:02:43;2.83;;;1.15;;
25153;SDS011;47555;51.038;6.280;2023-07-29T08:05:09;2.00;;;1.30;;
25153;SDS011;47555;51.038;6.280;2023-07-29T08:07:35;3.20;;;1.00;;
25153;SDS011;47555;51.038;6.280;2023-07-29T08:10:01;1.50;;;1.00;;
25153;SDS011;47555;51.038;6.280;2023-07-29T08:12:27;1.27;;;1.10;;
25153;SDS011;47555;51.038;6.280;2023-07-29T08:14:53;0.93;;;0.90;;
25153;SDS011;47555;51.038;6.280;2023-07-29T08:17:19;2.17;;;1.35;;
25153;SDS011;47555;51.038;6.280;2023-07-29T08:19:45;2.72;;;1.30;;
25153;SDS011;47555;51.038;6.280;2023-07-29T08:22:11;3.00;;;1.23;;
25153;SDS011;47555;51.038;6.280;2023-07-29T08:24:37;1.27;;;1.17;;
25153;SDS011;47555;51.038;6.280;2023-07-29T08:27:03;3.70;;;1.08;;
25153;SDS011;47555;51.038;6.280;2023-07-29T08:29:29;1.50;;;0.93;;
25153;SDS011;47555;51.038;6.280;2023-07-29T08:31:55;1.77;;;1.20;;
25153;SDS011;47555;51.038;6.280;2023-07-29T08:34:21;2.47;;;0.95;;
25153;SDS011;47555;51.038;6.280;2023-07-29T08:36:47;1.27;;;0.90;;
25153;SDS011;47555;51.038;6.280;2023-07-29T08:39:13;3.38;;;0.93;;
25153;SDS011;47555;51.038;6.280;2023-07-29T08:41:48;1.52;;;1.20;;
25153;SDS011;47555;51.038;6.280;2023-07-29T08:44:23;1.92;;;1.83;;
25153;SDS011;47555;51.038;6.280;2023-07-29T08:46:49;2.78;;;1.02;;
25153;SDS011;47555;51.038;6.280;2023-07-29T08:49:16;1.67;;;1.20;;
25153;SDS011;47555;51.038;6.280;2023-07-29T08:51:48;1.70;;;1.10;;
25153;SDS011;47555;51.038;6.280;2023-07-29T08:54:14;1.90;;;0.98;;
25153;SDS011;47555;51.038;6.280;2023-07-29T08:56:41;1.65;;;1.40;;
25153;SDS011;47555;51.038;6.280;2023-07-29T08:59:10;2.65;;;1.30;;
25153;SDS011;47555;51.038;6.280;2023-07-29T09:01:39;1.70;;;1.05;;
25153;SDS011;47555;51.038;6.280;2023-07-29T09:04:05;1.90;;;1.17;;
25153;SDS011;47555;51.038;6.280;2023-07-29T09:06:31;1.00;;;0.90;;
25153;SDS011;47555;51.038;6.280;2023-07-29T09:08:58;1.23;;;1.13;;
25153;SDS011;47555;51.038;6.280;2023-07-29T09:11:24;2.13;;;1.25;;
25153;SDS011;47555;51.038;6.280;2023-07-29T09:13:50;1.40;;;1.00;;
25153;SDS011;47555;51.038;6.280;2023-07-29T09:16:17;2.60;;;1.35;;
25153;SDS011;47555;51.038;6.280;2023-07-29T09:18:44;5.25;;;1.17;;
25153;SDS011;47555;51.038;6.280;2023-07-29T09:21:10;1.77;;;1.27;;
25153;SDS011;47555;51.038;6.280;2023-07-29T09:23:42;1.38;;;1.10;;
25153;SDS011;47555;51.038;6.280;2023-07-29T09:26:08;1.48;;;1.30;;
25153;SDS011;47555;51.038;6.280;2023-07-29T09:28:35;1.88;;;1.20;;
25153;SDS011;47555;51.038;6.280;2023-07-29T09:31:02;1.52;;;1.17;;
25153;SDS011;47555;51.038;6.280;2023-07-29T09:33:28;1.38;;;1.20;;
25153;SDS011;47555;51.038;6.280;2023-07-29T09:35:56;1.60;;;1.13;;
25153;SDS011;47555;51.038;6.280;2023-07-29T09:38:28;2.05;;;1.30;;
25153;SDS011;47555;51.038;6.280;2023-07-29T09:40:55;1.20;;;1.10;;
25153;SDS011;47555;51.038;6.280;2023-07-29T09:43:24;1.38;;;1.20;;
25153;SDS011;47555;51.038;6.280;2023-07-29T09:45:51;1.95;;;1.30;;
25153;SDS011;47555;51.038;6.280;2023-07-29T09:48:19;2.22;;;1.20;;
25153;SDS011;47555;51.038;6.280;2023-07-29T09:50:48;2.17;;;1.10;;
25153;SDS011;47555;51.038;6.280;2023-07-29T09:53:14;1.98;;;1.30;;
25153;SDS011;47555;51.038;6.280;2023-07-29T09:55:40;1.38;;;1.10;;
25153;SDS011;47555;51.038;6.280;2023-07-29T09:58:11;2.35;;;1.30;;
25153;SDS011;47555;51.038;6.280;2023-07-29T10:00:37;2.70;;;1.60;;
25153;SDS011;47555;51.038;6.280;2023-07-29T10:03:05;1.30;;;1.20;;
25153;SDS011;47555;51.038;6.280;2023-07-29T10:05:32;4.43;;;1.50;;
25153;SDS011;47555;51.038;6.280;2023-07-29T10:08:00;1.70;;;1.40;;
25153;SDS011;47555;51.038;6.280;2023-07-29T10:10:27;1.85;;;1.42;;
25153;SDS011;47555;51.038;6.280;2023-07-29T10:12:54;1.45;;;1.13;;
25153;SDS011;47555;51.038;6.280;2023-07-29T10:15:20;2.08;;;1.23;;
25153;SDS011;47555;51.038;6.280;2023-07-29T10:17:46;1.38;;;1.27;;
25153;SDS011;47555;51.038;6.280;2023-07-29T10:20:12;2.78;;;1.30;;
25153;SDS011;47555;51.038;6.280;2023-07-29T10:22:40;1.98;;;1.30;;
25153;SDS011;47555;51.038;6.280;2023-07-29T10:25:16;1.95;;;1.27;;
25153;SDS011;47555;51.038;6.280;2023-07-29T10:27:43;2.75;;;1.42;;
25153;SDS011;47555;51.038;6.280;2023-07-29T10:30:10;1.38;;;1.27;;
25153;SDS011;47555;51.038;6.280;2023-07-29T10:32:38;2.08;;;1.30;;
25153;SDS011;47555;51.038;6.280;2023-07-29T10:35:04;1.42;;;1.33;;
25153;SDS011;47555;51.038;6.280;2023-07-29T10:37:31;1.38;;;1.17;;
25153;SDS011;47555;51.038;6.280;2023-07-29T10:39:57;2.13;;;1.27;;
25153;SDS011;47555;51.038;6.280;2023-07-29T10:42:23;2.30;;;1.40;;
25153;SDS011;47555;51.038;6.280;2023-07-29T10:44:52;1.45;;;1.23;;
25153;SDS011;47555;51.038;6.280;2023-07-29T10:47:19;1.55;;;1.42;;
25153;SDS011;47555;51.038;6.280;2023-07-29T10:49:49;2.20;;;1.27;;
25153;SDS011;47555;51.038;6.280;2023-07-29T10:52:17;2.88;;;1.45;;
25153;SDS011;47555;51.038;6.280;2023-07-29T10:54:53;1.90;;;1.40;;
25153;SDS011;47555;51.038;6.280;2023-07-29T10:57:40;2.22;;;1.35;;
25153;SDS011;47555;51.038;6.280;2023-07-29T11:00:07;1.95;;;1.20;;
25153;SDS011;47555;51.038;6.280;2023-07-29T11:02:37;1.58;;;1.27;;
25153;SDS011;47555;51.038;6.280;2023-07-29T11:05:05;1.92;;;1.40;;
25153;SDS011;47555;51.038;6.280;2023-07-29T11:07:32;1.33;;;1.15;;
25153;SDS011;47555;51.038;6.280;2023-07-29T11:10:08;2.35;;;1.50;;
25153;SDS011;47555;51.038;6.280;2023-07-29T11:17:36;1.30;;;1.20;;
25153;SDS011;47555;51.038;6.280;2023-07-29T11:20:02;3.05;;;1.45;;
25153;SDS011;47555;51.038;6.280;2023-07-29T11:22:29;2.30;;;1.38;;
25153;SDS011;47555;51.038;6.280;2023-07-29T11:24:55;1.52;;;1.00;;
25153;SDS011;47555;51.038;6.280;2023-07-29T11:27:22;1.65;;;1.35;;
25153;SDS011;47555;51.038;6.280;2023-07-29T11:29:48;1.50;;;1.40;;
25153;SDS011;47555;51.038;6.280;2023-07-29T11:32:14;2.33;;;1.40;;
25153;SDS011;47555;51.038;6.280;2023-07-29T11:34:41;1.60;;;1.30;;
25153;SDS011;47555;51.038;6.280;2023-07-29T11:37:09;1.30;;;1.20;;
25153;SDS011;47555;51.038;6.280;2023-07-29T11:39:41;3.42;;;1.75;;
25153;SDS011;47555;51.038;6.280;2023-07-29T11:42:10;2.17;;;1.50;;
25153;SDS011;47555;51.038;6.280;2023-07-29T11:44:36;1.85;;;1.50;;
25153;SDS011;47555;51.038;6.280;2023-07-29T11:47:05;2.28;;;1.45;;
25153;SDS011;47555;51.038;6.280;2023-07-29T11:49:32;2.53;;;1.50;;
25153;SDS011;47555;51.038;6.280;2023-07-29T11:51:58;2.30;;;1.48;;
25153;SDS011;47555;51.038;6.280;2023-07-29T11:54:24;2.92;;;1.83;;
25153;SDS011;47555;51.038;6.280;2023-07-29T11:56:50;1.80;;;1.40;;
25153;SDS011;47555;51.038;6.280;2023-07-29T11:59:16;2.33;;;1.67;;
25153;SDS011;47555;51.038;6.280;2023-07-29T12:01:42;2.80;;;1.77;;
25153;SDS011;47555;51.038;6.280;2023-07-29T12:04:08;1.58;;;1.48;;
25153;SDS011;47555;51.038;6.280;2023-07-29T12:06:35;2.08;;;1.70;;
25153;SDS011;47555;51.038;6.280;2023-07-29T12:09:01;1.67;;;1.40;;
25153;SDS011;47555;51.038;6.280;2023-07-29T12:11:27;2.03;;;1.83;;
25153;SDS011;47555;51.038;6.280;2023-07-29T12:13:53;2.15;;;1.73;;
25153;SDS011;47555;51.038;6.280;2023-07-29T12:16:20;1.70;;;1.60;;
25153;SDS011;47555;51.038;6.280;2023-07-29T12:18:46;2.15;;;1.63;;
25153;SDS011;47555;51.038;6.280;2023-07-29T12:21:14;2.72;;;1.60;;
25153;SDS011;47555;51.038;6.280;2023-07-29T12:23:40;2.20;;;1.80;;
25153;SDS011;47555;51.038;6.280;2023-07-29T12:26:06;1.65;;;1.50;;
25153;SDS011;47555;51.038;6.280;2023-07-29T12:28:32;2.03;;;1.63;;
25153;SDS011;47555;51.038;6.280;2023-07-29T12:30:58;1.77;;;1.63;;
25153;SDS011;47555;51.038;6.280;2023-07-29T12:33:31;1.60;;;1.50;;
25153;SDS011;47555;51.038;6.280;2023-07-29T12:35:57;1.77;;;1.40;;
25153;SDS011;47555;51.038;6.280;2023-07-29T12:38:27;1.77;;;1.63;;
25153;SDS011;47555;51.038;6.280;2023-07-29T12:40:53;1.63;;;1.52;;
25153;SDS011;47555;51.038;6.280;2023-07-29T12:43:19;1.52;;;1.40;;
25153;SDS011;47555;51.038;6.280;2023-07-29T12:45:45;2.25;;;1.58;;
25153;SDS011;47555;51.038;6.280;2023-07-29T12:48:11;2.33;;;1.88;;
25153;SDS011;47555;51.038;6.280;2023-07-29T12:50:37;2.10;;;1.90;;
25153;SDS011;47555;51.038;6.280;2023-07-29T12:53:04;2.83;;;1.70;;
25153;SDS011;47555;51.038;6.280;2023-07-29T12:55:30;2.10;;;1.67;;
25153;SDS011;47555;51.038;6.280;2023-07-29T12:57:56;1.70;;;1.60;;
25153;SDS011;47555;51.038;6.280;2023-07-29T13:00:24;2.38;;;1.67;;
25153;SDS011;47555;51.038;6.280;2023-07-29T13:02:50;2.13;;;1.63;;
25153;SDS011;47555;51.038;6.280;2023-07-29T13:05:16;2.50;;;1.67;;
25153;SDS011;47555;51.038;6.280;2023-07-29T13:07:42;2.55;;;1.95;;
25153;SDS011;47555;51.038;6.280;2023-07-29T13:10:09;2.00;;;1.55;;
25153;SDS011;47555;51.038;6.280;2023-07-29T13:12:35;1.95;;;1.63;;
25153;SDS011;47555;51.038;6.280;2023-07-29T13:15:01;3.95;;;2.05;;
25153;SDS011;47555;51.038;6.280;2023-07-29T13:17:27;5.70;;;1.95;;
25153;SDS011;47555;51.038;6.280;2023-07-29T13:19:53;5.03;;;2.08;;
25153;SDS011;47555;51.038;6.280;2023-07-29T13:22:19;2.72;;;1.80;;
25153;SDS011;47555;51.038;6.280;2023-07-29T13:24:45;2.88;;;1.90;;
25153;SDS011;47555;51.038;6.280;2023-07-29T13:27:11;3.92;;;2.35;;
25153;SDS011;47555;51.038;6.280;2023-07-29T13:29:38;3.17;;;1.85;;
25153;SDS011;47555;51.038;6.280;2023-07-29T13:32:05;2.45;;;1.90;;
25153;SDS011;47555;51.038;6.280;2023-07-29T13:34:31;2.78;;;1.98;;
25153;SDS011;47555;51.038;6.280;2023-07-29T13:36:57;4.47;;;2.40;;
25153;SDS011;47555;51.038;6.280;2023-07-29T13:39:23;3.17;;;2.08;;
25153;SDS011;47555;51.038;6.280;2023-07-29T13:41:49;4.10;;;2.45;;
25153;SDS011;47555;51.038;6.280;2023-07-29T13:44:15;2.85;;;2.30;;
25153;SDS011;47555;51.038;6.280;2023-07-29T13:46:41;4.25;;;2.40;;
25153;SDS011;47555;51.038;6.280;2023-07-29T13:49:07;4.15;;;2.38;;
25153;SDS011;47555;51.038;6.280;2023-07-29T13:51:33;2.67;;;2.45;;
25153;SDS011;47555;51.038;6.280;2023-07-29T13:53:59;3.70;;;2.40;;
25153;SDS011;47555;51.038;6.280;2023-07-29T13:56:24;3.75;;;2.33;;
25153;SDS011;47555;51.038;6.280;2023-07-29T13:58:50;3.33;;;2.33;;
25153;SDS011;47555;51.038;6.280;2023-07-29T14:01:16;3.40;;;2.65;;
25153;SDS011;47555;51.038;6.280;2023-07-29T14:03:42;2.75;;;2.13;;
25153;SDS011;47555;51.038;6.280;2023-07-29T14:06:08;2.42;;;2.22;;
25153;SDS011;47555;51.038;6.280;2023-07-29T14:08:34;3.22;;;2.17;;
25153;SDS011;47555;51.038;6.280;2023-07-29T14:11:00;3.47;;;2.30;;
25153;SDS011;47555;51.038;6.280;2023-07-29T14:13:26;2.67;;;2.10;;
25153;SDS011;47555;51.038;6.280;2023-07-29T14:15:55;2.60;;;2.17;;
25153;SDS011;47555;51.038;6.280;2023-07-29T14:18:21;2.92;;;2.30;;
25153;SDS011;47555;51.038;6.280;2023-07-29T14:20:47;3.20;;;2.30;;
25153;SDS011;47555;51.038;6.280;2023-07-29T14:23:14;4.57;;;2.50;;
25153;SDS011;47555;51.038;6.280;2023-07-29T14:25:40;3.20;;;2.20;;
25153;SDS011;47555;51.038;6.280;2023-07-29T14:28:06;2.55;;;2.15;;
25153;SDS011;47555;51.038;6.280;2023-07-29T14:30:32;3.20;;;2.10;;
25153;SDS011;47555;51.038;6.280;2023-07-29T14:32:58;3.25;;;2.00;;
25153;SDS011;47555;51.038;6.280;2023-07-29T14:35:24;2.47;;;2.28;;
25153;SDS011;47555;51.038;6.280;2023-07-29T14:37:50;2.92;;;2.17;;
25153;SDS011;47555;51.038;6.280;2023-07-29T14:40:16;2.70;;;1.80;;
25153;SDS011;47555;51.038;6.280;2023-07-29T14:42:42;1.98;;;1.77;;
25153;SDS011;47555;51.038;6.280;2023-07-29T14:45:08;1.92;;;1.65;;
25153;SDS011;47555;51.038;6.280;2023-07-29T14:47:34;1.90;;;1.80;;
25153;SDS011;47555;51.038;6.280;2023-07-29T14:50:00;1.77;;;1.67;;
25153;SDS011;47555;51.038;6.280;2023-07-29T14:52:26;1.88;;;1.65;;
25153;SDS011;47555;51.038;6.280;2023-07-29T14:54:52;1.75;;;1.58;;